sensor_id;sensor_type;location;lat;lon;timestamp;P1;durP1;ratioP1;P2;durP2;ratioP2
68050;SDS011;54839;51.364;7.246;2023-03-07T00:00:45;15.90;;;10.90;;
68050;SDS011;54839;51.364;7.246;2023-03-07T00:03:11;21.50;;;12.63;;
68050;SDS011;54839;51.364;7.246;2023-03-07T00:05:41;20.83;;;13.13;;
68050;SDS011;54839;51.364;7.246;2023-03-07T00:08:07;19.17;;;11.70;;
68050;SDS011;54839;51.364;7.246;2023-03-07T00:10:33;20.97;;;12.10;;
68050;SDS011;54839;51.364;7.246;2023-03-07T00:12:58;23.43;;;14.33;;
68050;SDS011;54839;51.364;7.246;2023-03-07T00:15:24;17.43;;;11.00;;
68050;SDS011;54839;51.364;7.246;2023-03-07T00:17:50;18.93;;;13.10;;
68050;SDS011;54839;51.364;7.246;2023-03-07T00:20:15;15.13;;;9.07;;
68050;SDS011;54839;51.364;7.246;2023-03-07T00:22:41;15.03;;;10.53;;
68050;SDS011;54839;51.364;7.246;2023-03-07T00:25:08;21.43;;;13.17;;
68050;SDS011;54839;51.364;7.246;2023-03-07T00:27:34;15.97;;;10.57;;
68050;SDS011;54839;51.364;7.246;2023-03-07T00:30:00;15.33;;;9.67;;
68050;SDS011;54839;51.364;7.246;2023-03-07T00:32:28;15.97;;;9.20;;
68050;SDS011;54839;51.364;7.246;2023-03-07T00:34:55;15.30;;;10.97;;
68050;SDS011;54839;51.364;7.246;2023-03-07T00:37:22;16.63;;;12.30;;
68050;SDS011;54839;51.364;7.246;2023-03-07T00:39:48;12.10;;;8.73;;
68050;SDS011;54839;51.364;7.246;2023-03-07T00:42:14;20.37;;;13.27;;
68050;SDS011;54839;51.364;7.246;2023-03-07T00:44:40;12.60;;;8.77;;
68050;SDS011;54839;51.364;7.246;2023-03-07T00:47:06;13.50;;;10.20;;
68050;SDS011;54839;51.364;7.246;2023-03-07T00:49:32;14.40;;;9.63;;
68050;SDS011;54839;51.364;7.246;2023-03-07T00:51:57;17.27;;;11.37;;
68050;SDS011;54839;51.364;7.246;2023-03-07T00:54:23;17.33;;;11.20;;
68050;SDS011;54839;51.364;7.246;2023-03-07T00:56:48;15.87;;;9.37;;
68050;SDS011;54839;51.364;7.246;2023-03-07T00:59:14;9.90;;;6.97;;
68050;SDS011;54839;51.364;7.246;2023-03-07T01:01:40;13.40;;;9.10;;
68050;SDS011;54839;51.364;7.246;2023-03-07T01:04:06;8.97;;;7.57;;
68050;SDS011;54839;51.364;7.246;2023-03-07T01:06:32;9.13;;;7.43;;
68050;SDS011;54839;51.364;7.246;2023-03-07T01:09:00;12.00;;;8.10;;
68050;SDS011;54839;51.364;7.246;2023-03-07T01:11:29;10.60;;;8.10;;
68050;SDS011;54839;51.364;7.246;2023-03-07T01:13:59;12.60;;;8.57;;
68050;SDS011;54839;51.364;7.246;2023-03-07T01:16:30;8.00;;;5.90;;
68050;SDS011;54839;51.364;7.246;2023-03-07T01:19:01;8.90;;;6.60;;
68050;SDS011;54839;51.364;7.246;2023-03-07T01:21:30;11.03;;;6.23;;
68050;SDS011;54839;51.364;7.246;2023-03-07T01:23:57;12.13;;;6.10;;
68050;SDS011;54839;51.364;7.246;2023-03-07T01:26:24;12.40;;;8.60;;
68050;SDS011;54839;51.364;7.246;2023-03-07T01:28:56;9.50;;;7.70;;
68050;SDS011;54839;51.364;7.246;2023-03-07T01:31:24;11.03;;;7.23;;
68050;SDS011;54839;51.364;7.246;2023-03-07T01:33:50;12.33;;;9.43;;
68050;SDS011;54839;51.364;7.246;2023-03-07T01:36:18;9.80;;;8.77;;
68050;SDS011;54839;51.364;7.246;2023-03-07T01:38:46;4.23;;;3.73;;
68050;SDS011;54839;51.364;7.246;2023-03-07T01:41:13;8.70;;;7.20;;
68050;SDS011;54839;51.364;7.246;2023-03-07T01:43:38;6.63;;;5.20;;
68050;SDS011;54839;51.364;7.246;2023-03-07T01:48:56;7.03;;;6.33;;
68050;SDS011;54839;51.364;7.246;2023-03-07T01:51:27;6.13;;;4.70;;
68050;SDS011;54839;51.364;7.246;2023-03-07T01:53:53;10.03;;;8.30;;
68050;SDS011;54839;51.364;7.246;2023-03-07T01:56:21;6.27;;;5.10;;
68050;SDS011;54839;51.364;7.246;2023-03-07T01:58:47;6.70;;;5.30;;
68050;SDS011;54839;51.364;7.246;2023-03-07T02:01:13;6.07;;;4.27;;
68050;SDS011;54839;51.364;7.246;2023-03-07T02:03:52;6.30;;;5.00;;
68050;SDS011;54839;51.364;7.246;2023-03-07T02:06:22;7.10;;;5.50;;
68050;SDS011;54839;51.364;7.246;2023-03-07T02:08:51;7.67;;;5.63;;
68050;SDS011;54839;51.364;7.246;2023-03-07T02:11:19;4.40;;;3.70;;
68050;SDS011;54839;51.364;7.246;2023-03-07T02:13:45;7.80;;;6.57;;
68050;SDS011;54839;51.364;7.246;2023-03-07T02:16:10;6.90;;;4.90;;
68050;SDS011;54839;51.364;7.246;2023-03-07T02:18:42;5.30;;;4.60;;
68050;SDS011;54839;51.364;7.246;2023-03-07T02:21:30;6.63;;;4.60;;
68050;SDS011;54839;51.364;7.246;2023-03-07T02:26:44;4.80;;;4.13;;
68050;SDS011;54839;51.364;7.246;2023-03-07T02:29:11;5.60;;;4.70;;
68050;SDS011;54839;51.364;7.246;2023-03-07T02:31:38;4.70;;;3.77;;
68050;SDS011;54839;51.364;7.246;2023-03-07T02:34:15;5.43;;;4.27;;
68050;SDS011;54839;51.364;7.246;2023-03-07T02:36:44;5.03;;;4.50;;
68050;SDS011;54839;51.364;7.246;2023-03-07T02:39:11;4.67;;;4.17;;
68050;SDS011;54839;51.364;7.246;2023-03-07T02:41:36;5.43;;;4.07;;
68050;SDS011;54839;51.364;7.246;2023-03-07T02:44:03;3.03;;;2.63;;
68050;SDS011;54839;51.364;7.246;2023-03-07T02:46:29;5.90;;;5.30;;
68050;SDS011;54839;51.364;7.246;2023-03-07T02:48:54;2.80;;;2.60;;
68050;SDS011;54839;51.364;7.246;2023-03-07T02:51:20;5.30;;;4.23;;
68050;SDS011;54839;51.364;7.246;2023-03-07T02:53:46;4.60;;;4.20;;
68050;SDS011;54839;51.364;7.246;2023-03-07T02:56:11;5.00;;;4.10;;
68050;SDS011;54839;51.364;7.246;2023-03-07T02:58:37;3.87;;;3.30;;
68050;SDS011;54839;51.364;7.246;2023-03-07T03:01:02;3.73;;;3.43;;
68050;SDS011;54839;51.364;7.246;2023-03-07T03:03:28;4.17;;;3.33;;
68050;SDS011;54839;51.364;7.246;2023-03-07T03:05:53;4.73;;;3.00;;
68050;SDS011;54839;51.364;7.246;2023-03-07T03:08:19;3.60;;;3.30;;
68050;SDS011;54839;51.364;7.246;2023-03-07T03:10:44;3.57;;;2.87;;
68050;SDS011;54839;51.364;7.246;2023-03-07T03:13:10;2.73;;;2.20;;
68050;SDS011;54839;51.364;7.246;2023-03-07T03:15:35;3.63;;;2.97;;
68050;SDS011;54839;51.364;7.246;2023-03-07T03:18:01;3.30;;;3.00;;
68050;SDS011;54839;51.364;7.246;2023-03-07T03:20:26;4.20;;;3.80;;
68050;SDS011;54839;51.364;7.246;2023-03-07T03:22:52;4.60;;;3.30;;
68050;SDS011;54839;51.364;7.246;2023-03-07T03:25:18;4.60;;;4.00;;
68050;SDS011;54839;51.364;7.246;2023-03-07T03:27:47;3.27;;;2.83;;
68050;SDS011;54839;51.364;7.246;2023-03-07T03:30:12;2.80;;;2.53;;
68050;SDS011;54839;51.364;7.246;2023-03-07T03:32:38;4.37;;;3.67;;
68050;SDS011;54839;51.364;7.246;2023-03-07T03:35:05;3.80;;;2.87;;
68050;SDS011;54839;51.364;7.246;2023-03-07T03:37:31;3.07;;;2.27;;
68050;SDS011;54839;51.364;7.246;2023-03-07T03:39:57;2.40;;;1.60;;
68050;SDS011;54839;51.364;7.246;2023-03-07T03:42:23;5.20;;;4.17;;
68050;SDS011;54839;51.364;7.246;2023-03-07T03:44:49;4.50;;;4.10;;
68050;SDS011;54839;51.364;7.246;2023-03-07T03:47:14;3.60;;;3.23;;
68050;SDS011;54839;51.364;7.246;2023-03-07T03:49:40;3.07;;;2.77;;
68050;SDS011;54839;51.364;7.246;2023-03-07T03:52:06;5.33;;;4.17;;
68050;SDS011;54839;51.364;7.246;2023-03-07T03:54:31;2.90;;;2.60;;
68050;SDS011;54839;51.364;7.246;2023-03-07T03:56:57;3.27;;;2.97;;
68050;SDS011;54839;51.364;7.246;2023-03-07T03:59:23;3.80;;;3.37;;
68050;SDS011;54839;51.364;7.246;2023-03-07T04:01:48;3.87;;;3.43;;
68050;SDS011;54839;51.364;7.246;2023-03-07T04:04:14;4.80;;;4.20;;
68050;SDS011;54839;51.364;7.246;2023-03-07T04:06:39;7.30;;;4.63;;
68050;SDS011;54839;51.364;7.246;2023-03-07T04:09:06;5.17;;;4.67;;
68050;SDS011;54839;51.364;7.246;2023-03-07T04:11:32;6.70;;;4.43;;
68050;SDS011;54839;51.364;7.246;2023-03-07T04:13:57;5.00;;;4.43;;
68050;SDS011;54839;51.364;7.246;2023-03-07T04:16:23;3.50;;;3.17;;
68050;SDS011;54839;51.364;7.246;2023-03-07T04:18:49;5.60;;;5.10;;
68050;SDS011;54839;51.364;7.246;2023-03-07T04:21:15;7.93;;;6.43;;
68050;SDS011;54839;51.364;7.246;2023-03-07T04:23:41;8.50;;;5.13;;
68050;SDS011;54839;51.364;7.246;2023-03-07T04:26:07;5.70;;;5.10;;
68050;SDS011;54839;51.364;7.246;2023-03-07T04:28:34;7.07;;;5.47;;
68050;SDS011;54839;51.364;7.246;2023-03-07T04:31:17;6.67;;;6.07;;
68050;SDS011;54839;51.364;7.246;2023-03-07T04:33:44;8.63;;;6.57;;
68050;SDS011;54839;51.364;7.246;2023-03-07T04:36:10;5.97;;;4.50;;
68050;SDS011;54839;51.364;7.246;2023-03-07T04:38:37;6.07;;;4.83;;
68050;SDS011;54839;51.364;7.246;2023-03-07T04:41:03;7.00;;;6.20;;
68050;SDS011;54839;51.364;7.246;2023-03-07T04:43:29;8.53;;;7.67;;
68050;SDS011;54839;51.364;7.246;2023-03-07T04:45:55;9.37;;;7.57;;
68050;SDS011;54839;51.364;7.246;2023-03-07T04:48:20;8.27;;;6.20;;
68050;SDS011;54839;51.364;7.246;2023-03-07T04:50:49;9.30;;;7.40;;
68050;SDS011;54839;51.364;7.246;2023-03-07T04:53:16;6.87;;;6.17;;
68050;SDS011;54839;51.364;7.246;2023-03-07T04:55:42;5.67;;;5.07;;
68050;SDS011;54839;51.364;7.246;2023-03-07T04:58:08;8.03;;;7.20;;
68050;SDS011;54839;51.364;7.246;2023-03-07T05:00:37;7.10;;;6.13;;
68050;SDS011;54839;51.364;7.246;2023-03-07T05:03:04;8.30;;;6.40;;
68050;SDS011;54839;51.364;7.246;2023-03-07T05:05:30;9.77;;;7.27;;
68050;SDS011;54839;51.364;7.246;2023-03-07T05:07:55;5.50;;;4.90;;
68050;SDS011;54839;51.364;7.246;2023-03-07T05:10:21;8.03;;;6.73;;
68050;SDS011;54839;51.364;7.246;2023-03-07T05:12:46;9.80;;;7.97;;
68050;SDS011;54839;51.364;7.246;2023-03-07T05:15:12;8.80;;;7.70;;
68050;SDS011;54839;51.364;7.246;2023-03-07T05:17:38;9.47;;;6.20;;
68050;SDS011;54839;51.364;7.246;2023-03-07T05:20:03;7.70;;;6.87;;
68050;SDS011;54839;51.364;7.246;2023-03-07T05:22:29;8.60;;;7.10;;
68050;SDS011;54839;51.364;7.246;2023-03-07T05:24:55;10.13;;;7.87;;
68050;SDS011;54839;51.364;7.246;2023-03-07T05:27:20;7.83;;;6.83;;
68050;SDS011;54839;51.364;7.246;2023-03-07T05:29:46;9.80;;;8.27;;
68050;SDS011;54839;51.364;7.246;2023-03-07T05:32:11;7.30;;;6.37;;
68050;SDS011;54839;51.364;7.246;2023-03-07T05:34:37;6.60;;;5.77;;
68050;SDS011;54839;51.364;7.246;2023-03-07T05:37:02;7.53;;;6.70;;
68050;SDS011;54839;51.364;7.246;2023-03-07T05:39:28;8.03;;;6.23;;
68050;SDS011;54839;51.364;7.246;2023-03-07T05:41:53;10.20;;;8.90;;
68050;SDS011;54839;51.364;7.246;2023-03-07T05:44:19;8.83;;;6.27;;
68050;SDS011;54839;51.364;7.246;2023-03-07T05:46:45;7.00;;;5.50;;
68050;SDS011;54839;51.364;7.246;2023-03-07T05:49:11;12.20;;;9.70;;
68050;SDS011;54839;51.364;7.246;2023-03-07T05:51:36;10.30;;;8.73;;
68050;SDS011;54839;51.364;7.246;2023-03-07T05:54:02;10.73;;;6.37;;
68050;SDS011;54839;51.364;7.246;2023-03-07T05:56:27;6.13;;;5.40;;
68050;SDS011;54839;51.364;7.246;2023-03-07T05:58:53;8.20;;;6.27;;
68050;SDS011;54839;51.364;7.246;2023-03-07T06:01:18;11.70;;;7.90;;
68050;SDS011;54839;51.364;7.246;2023-03-07T06:03:44;6.77;;;6.17;;
68050;SDS011;54839;51.364;7.246;2023-03-07T06:06:10;12.03;;;10.27;;
68050;SDS011;54839;51.364;7.246;2023-03-07T06:08:38;6.67;;;5.90;;
68050;SDS011;54839;51.364;7.246;2023-03-07T06:11:04;6.63;;;5.97;;
68050;SDS011;54839;51.364;7.246;2023-03-07T06:13:29;8.40;;;7.53;;
68050;SDS011;54839;51.364;7.246;2023-03-07T06:15:55;10.20;;;7.43;;
68050;SDS011;54839;51.364;7.246;2023-03-07T06:18:22;10.13;;;9.17;;
68050;SDS011;54839;51.364;7.246;2023-03-07T06:20:58;15.57;;;11.87;;
68050;SDS011;54839;51.364;7.246;2023-03-07T06:23:26;13.40;;;10.87;;
68050;SDS011;54839;51.364;7.246;2023-03-07T06:25:53;11.37;;;8.70;;
68050;SDS011;54839;51.364;7.246;2023-03-07T06:28:18;13.33;;;11.10;;
68050;SDS011;54839;51.364;7.246;2023-03-07T06:30:44;11.70;;;10.10;;
68050;SDS011;54839;51.364;7.246;2023-03-07T06:33:10;13.33;;;8.30;;
68050;SDS011;54839;51.364;7.246;2023-03-07T06:35:39;12.40;;;10.83;;
68050;SDS011;54839;51.364;7.246;2023-03-07T06:38:06;9.23;;;8.23;;
68050;SDS011;54839;51.364;7.246;2023-03-07T06:40:32;11.83;;;9.67;;
68050;SDS011;54839;51.364;7.246;2023-03-07T06:42:57;10.60;;;8.90;;
68050;SDS011;54839;51.364;7.246;2023-03-07T06:45:23;15.70;;;12.47;;
68050;SDS011;54839;51.364;7.246;2023-03-07T06:47:49;10.23;;;9.13;;
68050;SDS011;54839;51.364;7.246;2023-03-07T06:50:14;11.30;;;9.37;;
68050;SDS011;54839;51.364;7.246;2023-03-07T06:52:40;12.60;;;10.17;;
68050;SDS011;54839;51.364;7.246;2023-03-07T06:55:06;12.30;;;11.00;;
68050;SDS011;54839;51.364;7.246;2023-03-07T06:57:32;17.70;;;15.73;;
68050;SDS011;54839;51.364;7.246;2023-03-07T06:59:58;10.60;;;9.60;;
68050;SDS011;54839;51.364;7.246;2023-03-07T07:02:24;14.63;;;10.97;;
68050;SDS011;54839;51.364;7.246;2023-03-07T07:04:50;16.57;;;13.67;;
68050;SDS011;54839;51.364;7.246;2023-03-07T07:07:16;12.23;;;8.70;;
68050;SDS011;54839;51.364;7.246;2023-03-07T07:09:41;7.37;;;6.67;;
68050;SDS011;54839;51.364;7.246;2023-03-07T07:12:07;11.70;;;9.50;;
68050;SDS011;54839;51.364;7.246;2023-03-07T07:14:32;13.93;;;10.40;;
68050;SDS011;54839;51.364;7.246;2023-03-07T07:16:58;10.23;;;9.13;;
68050;SDS011;54839;51.364;7.246;2023-03-07T07:19:24;12.13;;;8.90;;
68050;SDS011;54839;51.364;7.246;2023-03-07T07:21:51;9.20;;;8.30;;
68050;SDS011;54839;51.364;7.246;2023-03-07T07:24:17;10.03;;;8.60;;
68050;SDS011;54839;51.364;7.246;2023-03-07T07:26:42;11.70;;;8.63;;
68050;SDS011;54839;51.364;7.246;2023-03-07T07:29:08;11.80;;;8.87;;
68050;SDS011;54839;51.364;7.246;2023-03-07T07:31:34;11.80;;;8.87;;
68050;SDS011;54839;51.364;7.246;2023-03-07T07:33:59;11.13;;;7.50;;
68050;SDS011;54839;51.364;7.246;2023-03-07T07:36:25;13.93;;;7.93;;
68050;SDS011;54839;51.364;7.246;2023-03-07T07:38:52;10.43;;;9.27;;
68050;SDS011;54839;51.364;7.246;2023-03-07T07:41:17;14.73;;;12.60;;
68050;SDS011;54839;51.364;7.246;2023-03-07T07:43:43;15.40;;;11.93;;
68050;SDS011;54839;51.364;7.246;2023-03-07T07:46:10;15.23;;;12.57;;
68050;SDS011;54839;51.364;7.246;2023-03-07T07:48:36;12.70;;;9.57;;
68050;SDS011;54839;51.364;7.246;2023-03-07T07:51:02;14.07;;;10.80;;
68050;SDS011;54839;51.364;7.246;2023-03-07T07:53:28;12.97;;;10.10;;
68050;SDS011;54839;51.364;7.246;2023-03-07T07:55:54;12.67;;;8.67;;
68050;SDS011;54839;51.364;7.246;2023-03-07T07:58:20;12.90;;;10.40;;
68050;SDS011;54839;51.364;7.246;2023-03-07T08:00:46;16.97;;;14.00;;
68050;SDS011;54839;51.364;7.246;2023-03-07T08:03:11;9.40;;;7.57;;
68050;SDS011;54839;51.364;7.246;2023-03-07T08:05:37;11.33;;;7.97;;
68050;SDS011;54839;51.364;7.246;2023-03-07T08:08:07;9.23;;;8.23;;
68050;SDS011;54839;51.364;7.246;2023-03-07T08:10:33;15.87;;;11.67;;
68050;SDS011;54839;51.364;7.246;2023-03-07T08:12:59;12.80;;;10.20;;
68050;SDS011;54839;51.364;7.246;2023-03-07T08:15:25;18.97;;;10.40;;
68050;SDS011;54839;51.364;7.246;2023-03-07T08:17:50;10.90;;;9.10;;
68050;SDS011;54839;51.364;7.246;2023-03-07T08:20:17;15.33;;;10.30;;
68050;SDS011;54839;51.364;7.246;2023-03-07T08:22:46;14.40;;;12.83;;
68050;SDS011;54839;51.364;7.246;2023-03-07T08:25:18;11.67;;;8.80;;
68050;SDS011;54839;51.364;7.246;2023-03-07T08:27:45;13.17;;;8.90;;
68050;SDS011;54839;51.364;7.246;2023-03-07T08:30:12;11.57;;;8.57;;
68050;SDS011;54839;51.364;7.246;2023-03-07T08:32:38;8.43;;;7.60;;
68050;SDS011;54839;51.364;7.246;2023-03-07T08:35:04;16.77;;;12.20;;
68050;SDS011;54839;51.364;7.246;2023-03-07T08:37:30;12.33;;;7.77;;
68050;SDS011;54839;51.364;7.246;2023-03-07T08:39:56;12.23;;;7.80;;
68050;SDS011;54839;51.364;7.246;2023-03-07T08:42:21;12.43;;;8.17;;
68050;SDS011;54839;51.364;7.246;2023-03-07T08:44:47;12.50;;;8.33;;
68050;SDS011;54839;51.364;7.246;2023-03-07T08:47:12;13.03;;;9.53;;
68050;SDS011;54839;51.364;7.246;2023-03-07T08:49:38;8.40;;;6.50;;
68050;SDS011;54839;51.364;7.246;2023-03-07T08:52:04;8.93;;;7.60;;
68050;SDS011;54839;51.364;7.246;2023-03-07T08:54:30;20.40;;;10.10;;
68050;SDS011;54839;51.364;7.246;2023-03-07T08:56:56;12.50;;;7.67;;
68050;SDS011;54839;51.364;7.246;2023-03-07T08:59:22;13.67;;;9.80;;
68050;SDS011;54839;51.364;7.246;2023-03-07T09:01:48;13.57;;;10.17;;
68050;SDS011;54839;51.364;7.246;2023-03-07T09:04:14;13.73;;;10.73;;
68050;SDS011;54839;51.364;7.246;2023-03-07T09:06:39;8.87;;;7.10;;
68050;SDS011;54839;51.364;7.246;2023-03-07T09:09:05;8.80;;;7.00;;
68050;SDS011;54839;51.364;7.246;2023-03-07T09:11:30;11.40;;;10.07;;
68050;SDS011;54839;51.364;7.246;2023-03-07T09:13:56;8.70;;;6.70;;
68050;SDS011;54839;51.364;7.246;2023-03-07T09:16:21;13.90;;;9.90;;
68050;SDS011;54839;51.364;7.246;2023-03-07T09:18:47;10.70;;;9.10;;
68050;SDS011;54839;51.364;7.246;2023-03-07T09:21:12;15.37;;;9.20;;
68050;SDS011;54839;51.364;7.246;2023-03-07T09:23:38;7.90;;;6.40;;
68050;SDS011;54839;51.364;7.246;2023-03-07T09:26:04;9.57;;;6.37;;
68050;SDS011;54839;51.364;7.246;2023-03-07T09:28:30;7.70;;;6.87;;
68050;SDS011;54839;51.364;7.246;2023-03-07T09:30:56;10.90;;;9.13;;
68050;SDS011;54839;51.364;7.246;2023-03-07T09:33:21;15.43;;;11.53;;
68050;SDS011;54839;51.364;7.246;2023-03-07T09:35:47;9.43;;;8.50;;
68050;SDS011;54839;51.364;7.246;2023-03-07T09:38:13;12.00;;;9.50;;
68050;SDS011;54839;51.364;7.246;2023-03-07T09:40:38;9.80;;;8.77;;
68050;SDS011;54839;51.364;7.246;2023-03-07T09:43:07;11.23;;;7.70;;
68050;SDS011;54839;51.364;7.246;2023-03-07T09:46:05;12.13;;;8.10;;
68050;SDS011;54839;51.364;7.246;2023-03-07T09:49:05;11.13;;;9.33;;
68050;SDS011;54839;51.364;7.246;2023-03-07T09:51:42;7.03;;;5.77;;
68050;SDS011;54839;51.364;7.246;2023-03-07T09:54:11;9.40;;;7.63;;
68050;SDS011;54839;51.364;7.246;2023-03-07T09:56:43;11.10;;;8.40;;
68050;SDS011;54839;51.364;7.246;2023-03-07T09:59:20;11.00;;;9.40;;
68050;SDS011;54839;51.364;7.246;2023-03-07T10:02:11;8.20;;;6.13;;
68050;SDS011;54839;51.364;7.246;2023-03-07T10:04:42;5.00;;;4.37;;
68050;SDS011;54839;51.364;7.246;2023-03-07T10:07:21;7.40;;;5.60;;
68050;SDS011;54839;51.364;7.246;2023-03-07T10:09:52;8.67;;;6.90;;
68050;SDS011;54839;51.364;7.246;2023-03-07T10:12:27;8.23;;;7.43;;
68050;SDS011;54839;51.364;7.246;2023-03-07T10:15:50;5.53;;;4.77;;
68050;SDS011;54839;51.364;7.246;2023-03-07T10:18:20;8.07;;;7.10;;
68050;SDS011;54839;51.364;7.246;2023-03-07T10:20:50;9.07;;;8.17;;
68050;SDS011;54839;51.364;7.246;2023-03-07T10:26:11;8.40;;;7.30;;
68050;SDS011;54839;51.364;7.246;2023-03-07T10:28:40;6.07;;;4.57;;
68050;SDS011;54839;51.364;7.246;2023-03-07T10:31:12;8.87;;;7.67;;
68050;SDS011;54839;51.364;7.246;2023-03-07T10:33:39;10.50;;;7.83;;
68050;SDS011;54839;51.364;7.246;2023-03-07T10:36:09;8.83;;;7.97;;
68050;SDS011;54839;51.364;7.246;2023-03-07T10:38:42;10.00;;;8.27;;
68050;SDS011;54839;51.364;7.246;2023-03-07T10:41:16;10.33;;;7.30;;
68050;SDS011;54839;51.364;7.246;2023-03-07T10:43:45;9.63;;;8.63;;
68050;SDS011;54839;51.364;7.246;2023-03-07T10:46:15;10.07;;;8.97;;
68050;SDS011;54839;51.364;7.246;2023-03-07T10:48:45;7.90;;;7.10;;
68050;SDS011;54839;51.364;7.246;2023-03-07T10:54:01;9.90;;;8.90;;
68050;SDS011;54839;51.364;7.246;2023-03-07T10:56:28;5.23;;;4.73;;
68050;SDS011;54839;51.364;7.246;2023-03-07T11:01:38;9.60;;;8.03;;
68050;SDS011;54839;51.364;7.246;2023-03-07T11:04:19;9.63;;;7.97;;
68050;SDS011;54839;51.364;7.246;2023-03-07T11:06:56;9.07;;;7.43;;
68050;SDS011;54839;51.364;7.246;2023-03-07T11:09:28;10.23;;;9.23;;
68050;SDS011;54839;51.364;7.246;2023-03-07T11:11:59;9.27;;;8.27;;
68050;SDS011;54839;51.364;7.246;2023-03-07T11:14:49;12.17;;;9.40;;
68050;SDS011;54839;51.364;7.246;2023-03-07T11:17:18;9.57;;;8.33;;
68050;SDS011;54839;51.364;7.246;2023-03-07T11:19:46;10.13;;;7.70;;
68050;SDS011;54839;51.364;7.246;2023-03-07T11:22:16;5.60;;;3.47;;
68050;SDS011;54839;51.364;7.246;2023-03-07T11:24:52;6.13;;;5.50;;
68050;SDS011;54839;51.364;7.246;2023-03-07T11:27:31;7.17;;;5.47;;
68050;SDS011;54839;51.364;7.246;2023-03-07T11:32:50;7.03;;;5.17;;
68050;SDS011;54839;51.364;7.246;2023-03-07T11:35:42;10.50;;;7.37;;
68050;SDS011;54839;51.364;7.246;2023-03-07T11:38:26;10.70;;;8.20;;
68050;SDS011;54839;51.364;7.246;2023-03-07T11:40:58;6.70;;;5.53;;
68050;SDS011;54839;51.364;7.246;2023-03-07T11:46:39;7.70;;;5.60;;
68050;SDS011;54839;51.364;7.246;2023-03-07T11:50:28;12.43;;;8.90;;
68050;SDS011;54839;51.364;7.246;2023-03-07T11:52:38;12.80;;;9.97;;
68050;SDS011;54839;51.364;7.246;2023-03-07T11:58:41;11.87;;;9.17;;
68050;SDS011;54839;51.364;7.246;2023-03-07T12:11:54;12.93;;;9.30;;
68050;SDS011;54839;51.364;7.246;2023-03-07T12:17:33;9.70;;;8.23;;
68050;SDS011;54839;51.364;7.246;2023-03-07T12:20:21;13.50;;;7.37;;
68050;SDS011;54839;51.364;7.246;2023-03-07T12:25:41;8.37;;;7.00;;
68050;SDS011;54839;51.364;7.246;2023-03-07T12:28:31;8.40;;;6.33;;
68050;SDS011;54839;51.364;7.246;2023-03-07T12:31:26;7.20;;;6.33;;
68050;SDS011;54839;51.364;7.246;2023-03-07T12:34:03;9.03;;;6.10;;
68050;SDS011;54839;51.364;7.246;2023-03-07T12:39:22;8.10;;;5.20;;
68050;SDS011;54839;51.364;7.246;2023-03-07T12:42:17;5.63;;;4.80;;
68050;SDS011;54839;51.364;7.246;2023-03-07T12:45:17;5.57;;;4.97;;
68050;SDS011;54839;51.364;7.246;2023-03-07T12:53:16;8.10;;;5.97;;
68050;SDS011;54839;51.364;7.246;2023-03-07T12:58:21;8.67;;;6.90;;
68050;SDS011;54839;51.364;7.246;2023-03-07T13:01:42;8.07;;;6.50;;
68050;SDS011;54839;51.364;7.246;2023-03-07T13:06:51;7.93;;;6.60;;
68050;SDS011;54839;51.364;7.246;2023-03-07T13:09:20;7.67;;;6.67;;
68050;SDS011;54839;51.364;7.246;2023-03-07T13:14:40;9.73;;;8.00;;
68050;SDS011;54839;51.364;7.246;2023-03-07T13:17:08;9.73;;;7.43;;
68050;SDS011;54839;51.364;7.246;2023-03-07T13:30:23;10.40;;;7.30;;
68050;SDS011;54839;51.364;7.246;2023-03-07T13:32:57;9.10;;;6.67;;
68050;SDS011;54839;51.364;7.246;2023-03-07T13:56:07;7.23;;;6.00;;
68050;SDS011;54839;51.364;7.246;2023-03-07T13:58:48;5.23;;;4.73;;
68050;SDS011;54839;51.364;7.246;2023-03-07T14:01:30;5.20;;;4.30;;
68050;SDS011;54839;51.364;7.246;2023-03-07T14:04:23;6.73;;;5.13;;
68050;SDS011;54839;51.364;7.246;2023-03-07T14:09:28;6.10;;;5.43;;
68050;SDS011;54839;51.364;7.246;2023-03-07T14:12:11;7.20;;;4.63;;
68050;SDS011;54839;51.364;7.246;2023-03-07T14:20:45;5.63;;;4.50;;
68050;SDS011;54839;51.364;7.246;2023-03-07T14:26:08;5.50;;;4.37;;
68050;SDS011;54839;51.364;7.246;2023-03-07T14:28:47;5.83;;;4.43;;
68050;SDS011;54839;51.364;7.246;2023-03-07T14:31:27;7.20;;;5.20;;
68050;SDS011;54839;51.364;7.246;2023-03-07T14:33:55;10.30;;;6.50;;
68050;SDS011;54839;51.364;7.246;2023-03-07T14:36:21;5.50;;;5.00;;
68050;SDS011;54839;51.364;7.246;2023-03-07T14:38:50;7.37;;;5.50;;
68050;SDS011;54839;51.364;7.246;2023-03-07T14:41:24;7.30;;;5.37;;
68050;SDS011;54839;51.364;7.246;2023-03-07T14:49:55;7.17;;;5.73;;
68050;SDS011;54839;51.364;7.246;2023-03-07T14:52:32;12.07;;;6.40;;
68050;SDS011;54839;51.364;7.246;2023-03-07T14:54:59;7.93;;;6.53;;
68050;SDS011;54839;51.364;7.246;2023-03-07T14:57:31;8.13;;;6.40;;
68050;SDS011;54839;51.364;7.246;2023-03-07T15:00:05;9.40;;;6.37;;
68050;SDS011;54839;51.364;7.246;2023-03-07T15:02:49;6.00;;;4.50;;
68050;SDS011;54839;51.364;7.246;2023-03-07T15:05:45;7.90;;;5.63;;
68050;SDS011;54839;51.364;7.246;2023-03-07T15:08:17;7.50;;;5.77;;
68050;SDS011;54839;51.364;7.246;2023-03-07T15:10:46;7.00;;;5.20;;
68050;SDS011;54839;51.364;7.246;2023-03-07T15:13:23;6.80;;;4.97;;
68050;SDS011;54839;51.364;7.246;2023-03-07T15:15:55;5.90;;;4.20;;
68050;SDS011;54839;51.364;7.246;2023-03-07T15:18:27;6.20;;;4.60;;
68050;SDS011;54839;51.364;7.246;2023-03-07T15:21:02;8.70;;;4.20;;
68050;SDS011;54839;51.364;7.246;2023-03-07T15:23:29;8.10;;;5.80;;
68050;SDS011;54839;51.364;7.246;2023-03-07T15:25:56;6.80;;;5.03;;
68050;SDS011;54839;51.364;7.246;2023-03-07T15:28:30;4.40;;;4.00;;
68050;SDS011;54839;51.364;7.246;2023-03-07T15:30:58;4.80;;;4.30;;
68050;SDS011;54839;51.364;7.246;2023-03-07T15:33:25;4.70;;;4.07;;
68050;SDS011;54839;51.364;7.246;2023-03-07T15:38:38;5.27;;;4.70;;
68050;SDS011;54839;51.364;7.246;2023-03-07T15:41:29;8.73;;;4.70;;
68050;SDS011;54839;51.364;7.246;2023-03-07T15:46:36;10.53;;;6.80;;
68050;SDS011;54839;51.364;7.246;2023-03-07T15:49:04;7.37;;;5.40;;
68050;SDS011;54839;51.364;7.246;2023-03-07T15:51:34;6.67;;;5.27;;
68050;SDS011;54839;51.364;7.246;2023-03-07T15:56:53;7.33;;;5.70;;
68050;SDS011;54839;51.364;7.246;2023-03-07T15:59:27;7.30;;;5.67;;
68050;SDS011;54839;51.364;7.246;2023-03-07T16:01:57;5.60;;;5.00;;
68050;SDS011;54839;51.364;7.246;2023-03-07T16:05:02;7.40;;;5.53;;
68050;SDS011;54839;51.364;7.246;2023-03-07T16:07:29;6.43;;;5.13;;
68050;SDS011;54839;51.364;7.246;2023-03-07T16:09:55;5.23;;;4.73;;
68050;SDS011;54839;51.364;7.246;2023-03-07T16:12:21;6.30;;;5.70;;
68050;SDS011;54839;51.364;7.246;2023-03-07T16:14:48;5.50;;;5.00;;
68050;SDS011;54839;51.364;7.246;2023-03-07T16:17:18;6.40;;;4.70;;
68050;SDS011;54839;51.364;7.246;2023-03-07T16:20:00;5.97;;;5.20;;
68050;SDS011;54839;51.364;7.246;2023-03-07T16:22:28;6.03;;;5.43;;
68050;SDS011;54839;51.364;7.246;2023-03-07T16:24:56;6.93;;;4.80;;
68050;SDS011;54839;51.364;7.246;2023-03-07T16:27:22;5.27;;;4.77;;
68050;SDS011;54839;51.364;7.246;2023-03-07T16:29:51;6.83;;;5.50;;
68050;SDS011;54839;51.364;7.246;2023-03-07T16:32:18;7.90;;;6.47;;
68050;SDS011;54839;51.364;7.246;2023-03-07T16:34:45;9.00;;;7.03;;
68050;SDS011;54839;51.364;7.246;2023-03-07T16:37:12;11.37;;;8.50;;
68050;SDS011;54839;51.364;7.246;2023-03-07T16:39:38;9.73;;;8.07;;
68050;SDS011;54839;51.364;7.246;2023-03-07T16:42:04;9.30;;;7.50;;
68050;SDS011;54839;51.364;7.246;2023-03-07T16:44:31;7.33;;;6.20;;
68050;SDS011;54839;51.364;7.246;2023-03-07T16:47:20;12.93;;;9.60;;